createdAt,value
2022-10-17T00:01:54.915Z,15.80
2022-10-17T00:06:10.009Z,15.80
2022-10-17T00:10:24.416Z,15.80
2022-10-17T00:14:38.182Z,15.80
2022-10-17T00:18:53.298Z,15.80
2022-10-17T00:23:06.995Z,15.80
2022-10-17T00:27:20.741Z,15.80
2022-10-17T00:31:35.704Z,15.90
2022-10-17T00:35:50.709Z,16.00
2022-10-17T00:40:05.780Z,16.10
2022-10-17T00:45:00.590Z,16.10
2022-10-17T00:49:14.361Z,16.20
2022-10-17T00:53:29.629Z,16.30
2022-10-17T00:57:45.331Z,16.30
2022-10-17T01:02:04.752Z,16.30
2022-10-17T01:06:18.562Z,16.30
2022-10-17T01:10:40.816Z,16.30
2022-10-17T01:15:06.366Z,16.20
2022-10-17T01:19:51.453Z,16.00
2022-10-17T01:24:38.156Z,16.00
2022-10-17T01:29:17.412Z,16.00
2022-10-17T01:33:44.420Z,15.90
2022-10-17T01:38:07.570Z,15.90
2022-10-17T01:42:28.249Z,15.90
2022-10-17T01:46:46.162Z,15.80
2022-10-17T01:51:07.635Z,15.80
2022-10-17T01:55:25.553Z,15.70
2022-10-17T01:59:42.713Z,15.70
2022-10-17T02:03:59.263Z,15.70
2022-10-17T02:08:25.746Z,15.70
2022-10-17T02:12:48.757Z,15.60
2022-10-17T02:17:10.388Z,15.60
2022-10-17T02:21:33.491Z,15.60
2022-10-17T02:25:54.672Z,15.70
2022-10-17T02:30:13.390Z,15.60
2022-10-17T02:34:31.160Z,15.60
2022-10-17T02:38:47.504Z,15.60
2022-10-17T02:43:02.636Z,15.60
2022-10-17T02:47:23.374Z,15.60
2022-10-17T02:51:45.300Z,15.70
2022-10-17T02:56:06.048Z,15.60
2022-10-17T03:00:23.201Z,15.60
2022-10-17T03:04:37.109Z,15.60
2022-10-17T03:08:50.860Z,15.60
2022-10-17T03:13:04.514Z,15.60
2022-10-17T03:17:24.337Z,15.70
2022-10-17T03:21:38.503Z,15.80
2022-10-17T03:25:53.734Z,15.90
2022-10-17T03:30:08.928Z,15.80
2022-10-17T03:34:24.684Z,15.80
2022-10-17T03:38:40.551Z,15.80
2022-10-17T03:42:54.852Z,15.70
2022-10-17T03:47:10.590Z,15.60
2022-10-17T03:51:28.670Z,15.50
2022-10-17T03:55:48.809Z,15.40
2022-10-17T04:00:02.807Z,15.40
2022-10-17T04:04:16.850Z,15.40
2022-10-17T04:08:34.857Z,15.40
2022-10-17T04:12:56.367Z,15.50
2022-10-17T04:17:10.429Z,15.60
2022-10-17T04:21:27.370Z,15.80
2022-10-17T04:25:43.045Z,15.90
2022-10-17T04:29:56.887Z,16.00
2022-10-17T04:34:14.152Z,16.20
2022-10-17T04:38:28.814Z,16.20
2022-10-17T04:42:44.705Z,16.30
2022-10-17T04:47:01.412Z,16.30
2022-10-17T04:51:16.693Z,16.40
2022-10-17T04:55:56.224Z,16.40
2022-10-17T05:00:13.123Z,16.40
2022-10-17T05:04:39.737Z,16.40
2022-10-17T05:08:54.179Z,16.40
2022-10-17T05:13:08.683Z,16.40
2022-10-17T05:17:24.897Z,16.30
2022-10-17T05:21:38.706Z,16.30
2022-10-17T05:25:56.653Z,16.20
2022-10-17T05:30:11.808Z,16.20
2022-10-17T05:34:28.466Z,16.10
2022-10-17T05:38:44.651Z,16.10
2022-10-17T05:42:58.756Z,16.00
2022-10-17T05:47:12.705Z,16.00
2022-10-17T05:51:27.844Z,16.00
2022-10-17T05:55:43.664Z,16.10
2022-10-17T05:59:57.586Z,16.10
2022-10-17T06:04:11.710Z,16.20
2022-10-17T06:08:26.797Z,16.20
2022-10-17T06:12:41.275Z,16.30
2022-10-17T06:16:55.269Z,16.40
2022-10-17T06:21:11.772Z,16.40
2022-10-17T06:25:33.499Z,16.50
2022-10-17T06:29:47.828Z,16.60
2022-10-17T06:34:01.772Z,16.70
2022-10-17T06:38:16.365Z,16.80
2022-10-17T06:42:32.042Z,16.90
2022-10-17T06:47:16.651Z,17.10
2022-10-17T06:51:35.608Z,17.30
2022-10-17T06:55:53.151Z,17.50
2022-10-17T07:00:20.472Z,17.70
2022-10-17T07:04:39.083Z,17.80
2022-10-17T07:08:52.930Z,18.40
2022-10-17T07:13:06.863Z,19.30
2022-10-17T07:17:23.540Z,20.30
2022-10-17T07:21:39.192Z,21.40
2022-10-17T07:25:54.778Z,22.30
2022-10-17T07:30:10.690Z,22.90
2022-10-17T07:34:31.342Z,23.50
2022-10-17T07:38:48.109Z,23.90
2022-10-17T07:43:02.212Z,24.10
2022-10-17T07:47:16.818Z,23.80
2022-10-17T07:51:33.586Z,23.40
2022-10-17T07:55:49.621Z,23.20
2022-10-17T08:00:06.833Z,23.00
2022-10-17T08:04:26.215Z,22.50
2022-10-17T08:08:41.771Z,21.90
2022-10-17T08:12:55.650Z,21.40
2022-10-17T08:17:09.708Z,21.00
2022-10-17T08:21:23.403Z,20.80
2022-10-17T08:25:40.805Z,20.60
2022-10-17T08:29:54.689Z,20.70
2022-10-17T08:34:08.348Z,20.90
2022-10-17T08:38:27.546Z,21.40
2022-10-17T08:43:10.461Z,22.00
2022-10-17T08:47:29.367Z,22.40
2022-10-17T08:51:50.641Z,22.90
2022-10-17T08:56:19.469Z,23.50
2022-10-17T09:00:42.214Z,24.20
2022-10-17T09:05:18.071Z,24.80
2022-10-17T09:09:42.236Z,25.30
2022-10-17T09:14:09.853Z,25.30
2022-10-17T09:18:29.419Z,25.30
2022-10-17T09:22:48.871Z,25.00
2022-10-17T09:27:03.288Z,24.80
2022-10-17T09:31:24.473Z,24.80
2022-10-17T09:35:41.474Z,24.80
2022-10-17T09:39:55.155Z,24.70
2022-10-17T09:44:19.900Z,25.20
2022-10-17T09:48:38.441Z,26.00
2022-10-17T09:52:55.576Z,26.80
2022-10-17T09:57:11.380Z,27.50
2022-10-17T10:01:28.291Z,28.00
2022-10-17T10:05:42.842Z,28.50
2022-10-17T10:09:59.370Z,28.80
2022-10-17T10:14:14.640Z,29.00
2022-10-17T10:18:34.135Z,29.30
2022-10-17T10:23:07.411Z,29.60
2022-10-17T10:27:23.092Z,29.90
2022-10-17T10:31:39.202Z,30.20
2022-10-17T10:35:58.780Z,30.50
2022-10-17T10:40:19.290Z,30.80
2022-10-17T10:44:37.695Z,30.50
2022-10-17T10:48:54.311Z,29.60
2022-10-17T10:53:35.721Z,29.00
2022-10-17T10:57:54.500Z,28.50
2022-10-17T11:02:20.402Z,28.00
2022-10-17T11:06:37.748Z,27.70
2022-10-17T11:11:03.244Z,27.20
2022-10-17T11:15:26.709Z,26.90
2022-10-17T11:19:49.699Z,26.80
2022-10-17T11:24:13.537Z,27.00
2022-10-17T11:28:27.520Z,27.00
2022-10-17T11:32:45.730Z,26.80
2022-10-17T11:37:05.226Z,26.60
2022-10-17T11:41:25.740Z,26.50
2022-10-17T11:45:44.330Z,26.60
2022-10-17T11:54:43.355Z,26.90
2022-10-17T11:59:15.205Z,27.10
2022-10-17T12:03:53.027Z,27.40
2022-10-17T12:08:14.800Z,27.60
2022-10-17T12:12:32.166Z,27.60
2022-10-17T12:16:47.606Z,27.60
2022-10-17T12:21:02.272Z,27.40
2022-10-17T12:25:20.879Z,27.30
2022-10-17T12:29:36.521Z,27.10
2022-10-17T12:33:52.012Z,26.80
2022-10-17T12:38:24.975Z,26.70
2022-10-17T12:42:51.895Z,26.50
2022-10-17T12:47:38.072Z,26.50
2022-10-17T12:52:29.003Z,26.40
2022-10-17T12:56:45.636Z,26.30
2022-10-17T13:05:39.126Z,26.40
2022-10-17T13:09:53.332Z,26.40
2022-10-17T13:14:14.809Z,26.30
2022-10-17T13:18:30.310Z,26.30
2022-10-17T13:22:47.185Z,26.40
2022-10-17T13:27:02.881Z,26.40
2022-10-17T13:31:30.619Z,26.30
2022-10-17T13:36:01.050Z,26.10
2022-10-17T13:40:40.817Z,26.10
2022-10-17T13:44:55.035Z,26.00
2022-10-17T13:49:17.941Z,25.90
2022-10-17T13:53:34.250Z,25.90
2022-10-17T13:57:49.327Z,26.00
2022-10-17T14:02:03.515Z,26.00
2022-10-17T14:06:20.404Z,26.00
2022-10-17T14:10:37.913Z,26.00
2022-10-17T14:15:11.220Z,26.00
2022-10-17T14:19:28.771Z,26.00
2022-10-17T14:23:44.591Z,26.00
2022-10-17T14:28:07.954Z,26.00
2022-10-17T14:32:23.780Z,25.90
2022-10-17T14:36:42.031Z,26.00
2022-10-17T14:41:15.677Z,26.00
2022-10-17T14:45:39.123Z,26.00
2022-10-17T14:50:09.513Z,26.00
2022-10-17T14:54:27.033Z,26.00
2022-10-17T14:58:40.747Z,26.00
2022-10-17T15:02:56.381Z,26.00
2022-10-17T15:07:15.489Z,25.90
2022-10-17T15:11:29.602Z,25.80
2022-10-17T15:15:44.900Z,25.70
2022-10-17T15:19:58.991Z,25.60
2022-10-17T15:24:15.063Z,25.50
2022-10-17T15:28:29.021Z,25.40
2022-10-17T15:32:42.895Z,25.30
2022-10-17T15:36:56.709Z,25.10
2022-10-17T15:41:12.580Z,25.00
2022-10-17T15:45:26.559Z,24.90
2022-10-17T15:49:40.222Z,24.70
2022-10-17T15:53:53.973Z,24.60
2022-10-17T15:58:13.681Z,24.60
2022-10-17T16:02:27.716Z,24.40
2022-10-17T16:06:41.606Z,24.30
2022-10-17T16:10:55.601Z,24.10
2022-10-17T16:15:15.637Z,23.90
2022-10-17T16:19:30.109Z,23.80
2022-10-17T16:23:44.615Z,23.70
2022-10-17T16:28:00.833Z,23.50
2022-10-17T16:32:16.026Z,23.30
2022-10-17T16:36:29.986Z,23.10
2022-10-17T16:40:43.747Z,23.00
2022-10-17T16:44:57.424Z,22.90
2022-10-17T16:49:13.071Z,22.80
2022-10-17T16:53:26.820Z,22.70
2022-10-17T16:57:40.526Z,22.70
2022-10-17T17:01:54.367Z,22.60
2022-10-17T17:06:12.815Z,22.50
2022-10-17T17:10:26.488Z,22.40
2022-10-17T17:14:40.521Z,22.30
2022-10-17T17:18:56.600Z,22.20
2022-10-17T17:23:15.743Z,22.10
2022-10-17T17:27:30.069Z,22.00
2022-10-17T17:31:44.064Z,21.80
2022-10-17T17:35:58.265Z,21.70
2022-10-17T17:40:13.824Z,21.60
2022-10-17T17:44:27.562Z,21.40
2022-10-17T17:48:42.390Z,21.20
2022-10-17T17:52:56.015Z,21.10
2022-10-17T17:57:11.062Z,21.00
2022-10-17T18:01:27.386Z,20.80
2022-10-17T18:05:41.634Z,20.70
2022-10-17T18:09:57.060Z,20.50
2022-10-17T18:14:14.102Z,20.40
2022-10-17T18:18:29.091Z,20.30
2022-10-17T18:22:42.763Z,20.20
2022-10-17T18:26:59.746Z,20.20
2022-10-17T18:31:18.949Z,20.10
2022-10-17T18:35:32.960Z,20.00
2022-10-17T18:39:48.468Z,19.90
2022-10-17T18:44:02.973Z,19.90
2022-10-17T18:48:18.310Z,19.80
2022-10-17T18:52:32.093Z,19.70
2022-10-17T18:56:45.875Z,19.70
2022-10-17T19:01:04.499Z,19.60
2022-10-17T19:05:19.570Z,19.50
2022-10-17T19:09:33.368Z,19.40
2022-10-17T19:13:48.123Z,19.30
2022-10-17T19:18:01.862Z,19.30
2022-10-17T19:22:17.107Z,19.10
2022-10-17T19:26:33.089Z,19.10
2022-10-17T19:30:46.769Z,19.10
2022-10-17T19:35:00.717Z,19.00
2022-10-17T19:39:18.802Z,18.90
2022-10-17T19:43:32.632Z,18.90
2022-10-17T19:47:46.373Z,18.90
2022-10-17T19:52:00.185Z,18.80
2022-10-17T19:56:18.554Z,18.80
2022-10-17T20:00:32.216Z,18.80
2022-10-17T20:04:54.650Z,18.70
2022-10-17T20:09:19.509Z,18.60
2022-10-17T20:13:37.032Z,18.60
2022-10-17T20:17:50.859Z,18.60
2022-10-17T20:22:04.552Z,18.50
2022-10-17T20:26:36.606Z,18.50
2022-10-17T20:30:53.135Z,18.40
2022-10-17T20:35:08.455Z,18.30
2022-10-17T20:39:22.285Z,18.30
2022-10-17T20:43:36.883Z,18.20
2022-10-17T20:47:54.269Z,18.20
2022-10-17T20:52:08.284Z,18.10
2022-10-17T20:56:25.668Z,18.10
2022-10-17T21:00:40.116Z,18.00
2022-10-17T21:04:55.168Z,18.00
2022-10-17T21:09:09.206Z,18.00
2022-10-17T21:13:22.892Z,17.90
2022-10-17T21:17:36.594Z,17.80
2022-10-17T21:21:51.870Z,17.80
2022-10-17T21:26:07.168Z,17.80
2022-10-17T21:30:21.703Z,17.70
2022-10-17T21:34:35.456Z,17.70
2022-10-17T21:38:52.300Z,17.70
2022-10-17T21:43:05.945Z,17.70
2022-10-17T21:47:21.429Z,17.80
2022-10-17T21:51:35.946Z,17.80
2022-10-17T21:55:50.999Z,17.80
2022-10-17T22:00:05.472Z,17.80
2022-10-17T22:04:25.957Z,17.80
2022-10-17T22:08:40.650Z,17.80
2022-10-17T22:12:55.691Z,17.70
2022-10-17T22:17:09.333Z,17.70
2022-10-17T22:21:23.721Z,17.60
2022-10-17T22:25:37.391Z,17.60
2022-10-17T22:29:52.509Z,17.60
2022-10-17T22:34:07.601Z,17.50
2022-10-17T22:38:21.287Z,17.50
2022-10-17T22:42:35.093Z,17.40
2022-10-17T22:46:50.476Z,17.30
2022-10-17T22:51:04.256Z,17.30
2022-10-17T22:55:18.523Z,17.20
2022-10-17T22:59:32.224Z,17.20
2022-10-17T23:03:47.876Z,17.10
2022-10-17T23:08:01.502Z,17.10
2022-10-17T23:12:15.165Z,17.10
2022-10-17T23:16:28.779Z,17.00
2022-10-17T23:20:43.800Z,17.00
2022-10-17T23:24:57.492Z,17.00
2022-10-17T23:29:11.132Z,16.90
2022-10-17T23:33:24.838Z,16.90
2022-10-17T23:37:39.936Z,16.80
2022-10-17T23:41:53.642Z,16.80
2022-10-17T23:46:08.002Z,16.70
2022-10-17T23:50:21.863Z,16.70
2022-10-17T23:54:36.977Z,16.60
2022-10-17T23:58:50.732Z,16.60
